Time;durP1;ratioP1;P1;durP2;ratioP2;P2;SDS_P1;SDS_P2;PMS_P1;PMS_P2;Temp;Humidity;BMP_temperature;BMP_pressure;BME280_temperature;BME280_humidity;BME280_pressure;Samples;Min_cycle;Max_cycle;Signal;HPM_P1;HPM_P2
2022/01/21 00:02:24;;;;;;;10.10;3.95;;;;;;;;;;5004642;28;20041;-62
2022/01/21 00:04:51;;;;;;;6.93;3.08;;;;;;;;;;5005321;28;20069;-62
2022/01/21 00:07:18;;;;;;;8.07;3.67;;;;;;;;;;5003657;28;20046;-62
2022/01/21 00:09:47;;;;;;;10.63;3.17;;;;;;;;;;5004101;28;20108;-62
2022/01/21 00:12:15;;;;;;;10.48;3.33;;;;;;;;;;5005830;28;20064;-62
2022/01/21 00:14:43;;;;;;;7.90;3.45;;;;;;;;;;5014305;28;20148;-63
2022/01/21 00:17:10;;;;;;;6.68;2.80;;;;;;;;;;5014246;28;20053;-62
2022/01/21 00:19:41;;;;;;;10.23;3.78;;;;;;;;;;5014256;28;20422;-60
2022/01/21 00:30:25;;;;;;;10.48;4.10;;;;;;;;;;5014103;28;20057;-61
2022/01/21 00:32:52;;;;;;;6.47;3.38;;;;;;;;;;5014196;28;20058;-62
2022/01/21 00:35:20;;;;;;;8.10;3.13;;;;;;;;;;5014234;28;20437;-61
2022/01/21 00:37:50;;;;;;;7.13;3.83;;;;;;;;;;5013579;28;20081;-61
2022/01/21 00:40:22;;;;;;;7.00;3.17;;;;;;;;;;5013656;28;20137;-62
2022/01/21 00:43:15;;;;;;;9.90;3.00;;;;;;;;;;5013927;28;20057;-61
2022/01/21 00:45:42;;;;;;;8.70;3.58;;;;;;;;;;5013588;28;20058;-62
2022/01/21 00:48:09;;;;;;;7.93;2.88;;;;;;;;;;5013473;28;20159;-61
2022/01/21 00:50:36;;;;;;;9.48;3.30;;;;;;;;;;5013390;28;20413;-61
2022/01/21 00:53:04;;;;;;;8.45;3.38;;;;;;;;;;5013338;28;20060;-61
2022/01/21 00:55:31;;;;;;;7.28;3.13;;;;;;;;;;5013608;28;20323;-62
2022/01/21 00:57:59;;;;;;;12.60;3.85;;;;;;;;;;5013479;28;20058;-61
2022/01/21 01:00:26;;;;;;;7.88;3.22;;;;;;;;;;5013566;28;20054;-62
2022/01/21 01:02:53;;;;;;;9.77;4.15;;;;;;;;;;5013572;28;20050;-62
2022/01/21 01:05:20;;;;;;;5.63;2.85;;;;;;;;;;5013341;28;20048;-60
2022/01/21 01:07:47;;;;;;;6.53;2.95;;;;;;;;;;5012347;28;20049;-60
2022/01/21 01:10:22;;;;;;;6.68;3.22;;;;;;;;;;5013422;28;20050;-62
2022/01/21 01:12:59;;;;;;;7.72;3.17;;;;;;;;;;5013429;28;20100;-62
2022/01/21 01:20:57;;;;;;;8.70;3.55;;;;;;;;;;4982924;28;20432;-62
2022/01/21 01:23:28;;;;;;;7.05;2.97;;;;;;;;;;5013111;28;20474;-62
2022/01/21 01:28:39;;;;;;;8.93;3.08;;;;;;;;;;5012648;28;20056;-62
2022/01/21 01:31:08;;;;;;;8.77;2.92;;;;;;;;;;5012897;28;20483;-62
2022/01/21 01:33:40;;;;;;;7.15;3.08;;;;;;;;;;5012952;28;20054;-61
2022/01/21 01:36:09;;;;;;;12.27;3.60;;;;;;;;;;5013192;28;20065;-61
2022/01/21 01:41:26;;;;;;;7.75;3.42;;;;;;;;;;5007607;28;20473;-61
2022/01/21 01:49:32;;;;;;;7.50;3.10;;;;;;;;;;5012600;28;20056;-61
2022/01/21 01:52:00;;;;;;;9.82;3.53;;;;;;;;;;5012798;28;20473;-61
2022/01/21 01:54:28;;;;;;;13.15;4.70;;;;;;;;;;5012442;28;20056;-61
2022/01/21 01:56:57;;;;;;;10.30;3.72;;;;;;;;;;5012395;28;20045;-61
2022/01/21 01:59:24;;;;;;;11.10;3.42;;;;;;;;;;5012316;28;20520;-61
2022/01/21 02:01:55;;;;;;;8.82;3.30;;;;;;;;;;5012480;28;20092;-60
2022/01/21 02:04:22;;;;;;;7.97;3.33;;;;;;;;;;5012482;28;20054;-60
2022/01/21 02:06:49;;;;;;;7.47;3.40;;;;;;;;;;5012144;28;20072;-61
2022/01/21 02:09:16;;;;;;;10.73;3.17;;;;;;;;;;5012447;28;20050;-61
2022/01/21 02:11:43;;;;;;;10.52;3.63;;;;;;;;;;5012270;28;20053;-60
2022/01/21 02:14:14;;;;;;;7.75;3.90;;;;;;;;;;5012418;28;20050;-61
2022/01/21 02:17:07;;;;;;;9.23;3.40;;;;;;;;;;5012431;28;20108;-61
2022/01/21 02:22:27;;;;;;;9.18;3.17;;;;;;;;;;5012508;28;20060;-61
2022/01/21 02:24:58;;;;;;;7.65;3.15;;;;;;;;;;5012462;28;20410;-60
2022/01/21 02:27:25;;;;;;;9.37;3.50;;;;;;;;;;5012285;28;20115;-61
2022/01/21 02:29:55;;;;;;;10.18;3.17;;;;;;;;;;5012079;28;20854;-60
2022/01/21 02:32:23;;;;;;;7.57;3.25;;;;;;;;;;5012243;28;20057;-61
2022/01/21 02:34:50;;;;;;;8.60;3.67;;;;;;;;;;5012115;28;20426;-60
2022/01/21 02:37:19;;;;;;;8.82;2.92;;;;;;;;;;5012018;28;20050;-60
2022/01/21 02:39:48;;;;;;;9.52;3.80;;;;;;;;;;5012227;28;20046;-61
2022/01/21 02:42:16;;;;;;;10.65;3.95;;;;;;;;;;5012634;28;20133;-60
2022/01/21 02:44:43;;;;;;;10.30;3.30;;;;;;;;;;5012102;28;20241;-60
2022/01/21 02:47:10;;;;;;;6.50;3.03;;;;;;;;;;5011665;28;20149;-59
2022/01/21 02:49:38;;;;;;;7.18;3.08;;;;;;;;;;5011807;28;20054;-61
2022/01/21 02:52:07;;;;;;;5.47;2.60;;;;;;;;;;5012092;28;20053;-61
2022/01/21 02:54:34;;;;;;;7.57;3.15;;;;;;;;;;5012144;28;20053;-61
2022/01/21 02:57:05;;;;;;;8.68;3.50;;;;;;;;;;5011664;28;20050;-60
2022/01/21 02:59:33;;;;;;;10.93;3.45;;;;;;;;;;5011942;28;20060;-61
2022/01/21 03:02:01;;;;;;;10.48;3.90;;;;;;;;;;5011874;28;20046;-60
2022/01/21 03:04:35;;;;;;;8.25;3.13;;;;;;;;;;5011910;28;20054;-60
2022/01/21 03:07:02;;;;;;;9.50;3.20;;;;;;;;;;5011710;28;20135;-61
2022/01/21 03:09:29;;;;;;;9.85;3.08;;;;;;;;;;5011676;28;20396;-60
2022/01/21 03:11:57;;;;;;;7.60;2.88;;;;;;;;;;5011719;28;20052;-60
2022/01/21 03:14:25;;;;;;;9.20;3.78;;;;;;;;;;5011757;28;20050;-60
2022/01/21 03:16:54;;;;;;;10.20;3.40;;;;;;;;;;5011526;28;20405;-60
2022/01/21 03:19:21;;;;;;;8.73;3.10;;;;;;;;;;5011532;28;20053;-60
2022/01/21 03:21:48;;;;;;;9.35;3.22;;;;;;;;;;5011679;28;20050;-60
2022/01/21 03:24:15;;;;;;;8.32;3.20;;;;;;;;;;5011645;28;20049;-60
2022/01/21 03:26:42;;;;;;;9.73;2.83;;;;;;;;;;5011512;28;20056;-60
2022/01/21 03:29:09;;;;;;;8.70;3.33;;;;;;;;;;5011474;28;20439;-60
2022/01/21 03:31:38;;;;;;;12.95;4.63;;;;;;;;;;5013619;28;20050;-61
2022/01/21 03:34:05;;;;;;;8.18;2.97;;;;;;;;;;5015121;28;20408;-60
2022/01/21 03:36:33;;;;;;;9.73;3.20;;;;;;;;;;5014812;28;20050;-62
2022/01/21 03:39:00;;;;;;;7.63;2.75;;;;;;;;;;5014920;28;20060;-62
2022/01/21 03:41:27;;;;;;;9.50;3.40;;;;;;;;;;5014864;28;20558;-62
2022/01/21 03:43:54;;;;;;;7.28;3.00;;;;;;;;;;5014919;28;20502;-62
2022/01/21 03:46:21;;;;;;;9.65;3.35;;;;;;;;;;5014837;28;20053;-62
2022/01/21 03:48:50;;;;;;;7.65;2.97;;;;;;;;;;5014612;28;20491;-60
2022/01/21 03:51:19;;;;;;;8.40;3.17;;;;;;;;;;5015097;28;20575;-62
2022/01/21 03:53:47;;;;;;;6.93;3.00;;;;;;;;;;5014635;28;20050;-62
2022/01/21 03:56:14;;;;;;;9.43;3.00;;;;;;;;;;5014535;28;20152;-60
2022/01/21 03:58:41;;;;;;;6.82;2.88;;;;;;;;;;5014491;28;20104;-60
2022/01/21 04:01:08;;;;;;;7.28;3.05;;;;;;;;;;5014684;28;20491;-61
2022/01/21 04:06:17;;;;;;;;;;;;;;;;;;4993230;28;20134;-67
2022/01/21 04:08:44;;;;;;;8.90;3.35;;;;;;;;;;4995009;28;20480;-65
2022/01/21 04:11:11;;;;;;;6.00;2.70;;;;;;;;;;4994853;28;20129;-65
2022/01/21 04:13:38;;;;;;;11.45;3.38;;;;;;;;;;4994846;28;20153;-64
2022/01/21 04:16:06;;;;;;;7.50;3.17;;;;;;;;;;4994618;28;20440;-65
2022/01/21 04:18:33;;;;;;;8.20;2.65;;;;;;;;;;4994646;28;20061;-65
2022/01/21 04:21:01;;;;;;;6.95;2.97;;;;;;;;;;4994284;28;20149;-65
2022/01/21 04:23:29;;;;;;;6.70;3.00;;;;;;;;;;4994753;28;20050;-65
2022/01/21 04:25:56;;;;;;;7.25;3.05;;;;;;;;;;4994560;28;20054;-66
2022/01/21 04:28:24;;;;;;;7.35;2.85;;;;;;;;;;4994517;28;20129;-65
2022/01/21 04:30:51;;;;;;;7.07;2.97;;;;;;;;;;4994432;28;20182;-65
2022/01/21 04:33:18;;;;;;;9.82;3.50;;;;;;;;;;4994446;28;20133;-65
2022/01/21 04:35:45;;;;;;;12.27;4.00;;;;;;;;;;4994670;28;20141;-65
2022/01/21 04:38:15;;;;;;;10.05;3.33;;;;;;;;;;4994241;28;20057;-65
2022/01/21 04:40:49;;;;;;;8.45;3.67;;;;;;;;;;4994309;28;20517;-65
2022/01/21 04:48:45;;;;;;;8.60;3.53;;;;;;;;;;4993888;28;20614;-65
2022/01/21 04:51:17;;;;;;;9.38;3.97;;;;;;;;;;4994158;28;20046;-66
2022/01/21 04:53:47;;;;;;;8.82;3.50;;;;;;;;;;4993936;28;20054;-65
2022/01/21 04:56:15;;;;;;;10.60;4.82;;;;;;;;;;4994345;28;20054;-65
2022/01/21 04:58:43;;;;;;;8.43;3.85;;;;;;;;;;4993775;28;20057;-65
2022/01/21 05:01:11;;;;;;;9.27;4.40;;;;;;;;;;4993911;28;20050;-65
2022/01/21 05:03:39;;;;;;;8.30;3.05;;;;;;;;;;4993931;28;20137;-65
2022/01/21 05:06:07;;;;;;;12.30;4.05;;;;;;;;;;4993953;28;20058;-65
2022/01/21 05:08:42;;;;;;;10.48;4.00;;;;;;;;;;4993508;28;20050;-65
2022/01/21 05:11:09;;;;;;;10.90;4.25;;;;;;;;;;4993617;28;20058;-65
2022/01/21 05:13:41;;;;;;;10.75;4.40;;;;;;;;;;4994197;28;20056;-64
2022/01/21 05:16:18;;;;;;;9.43;3.97;;;;;;;;;;4994112;28;20054;-65
2022/01/21 05:18:45;;;;;;;9.25;3.83;;;;;;;;;;4993475;28;20089;-65
2022/01/21 05:21:12;;;;;;;9.02;3.75;;;;;;;;;;4993407;28;20058;-66
2022/01/21 05:23:39;;;;;;;8.95;3.60;;;;;;;;;;4993546;28;20068;-66
2022/01/21 05:26:06;;;;;;;10.45;5.00;;;;;;;;;;4993399;28;20057;-66
2022/01/21 05:28:33;;;;;;;9.23;3.97;;;;;;;;;;4993478;28;20054;-65
2022/01/21 05:31:01;;;;;;;9.30;3.70;;;;;;;;;;4993637;28;20057;-65
2022/01/21 05:33:28;;;;;;;8.45;3.63;;;;;;;;;;4993247;28;20046;-66
2022/01/21 05:35:55;;;;;;;9.25;3.78;;;;;;;;;;4993226;28;20525;-65
2022/01/21 05:38:22;;;;;;;8.45;3.28;;;;;;;;;;4992633;28;20389;-65
2022/01/21 05:40:50;;;;;;;5.20;2.17;;;;;;;;;;4993444;28;20447;-65
2022/01/21 05:43:17;;;;;;;2.95;1.30;;;;;;;;;;4993729;28;20054;-65
2022/01/21 05:48:30;;;;;;;9.88;2.75;;;;;;;;;;4992977;28;20049;-66
2022/01/21 05:50:58;;;;;;;6.05;1.80;;;;;;;;;;4993485;28;20410;-66
2022/01/21 05:53:25;;;;;;;4.55;1.65;;;;;;;;;;4992962;28;20061;-65
2022/01/21 05:55:54;;;;;;;5.22;1.60;;;;;;;;;;4993343;28;20133;-65
2022/01/21 05:58:21;;;;;;;4.60;2.47;;;;;;;;;;4992621;28;20093;-66
2022/01/21 06:00:48;;;;;;;3.63;1.48;;;;;;;;;;4993472;28;20046;-66
2022/01/21 06:03:16;;;;;;;4.55;1.83;;;;;;;;;;4993191;28;20050;-66
2022/01/21 06:05:45;;;;;;;6.18;1.88;;;;;;;;;;4992682;28;20140;-66
2022/01/21 06:08:13;;;;;;;6.72;1.92;;;;;;;;;;4992768;28;20157;-66
2022/01/21 06:10:43;;;;;;;5.18;1.90;;;;;;;;;;4993821;28;20050;-66
2022/01/21 06:13:13;;;;;;;4.25;2.10;;;;;;;;;;4993146;28;20064;-66
2022/01/21 06:15:40;;;;;;;3.33;1.50;;;;;;;;;;4993062;28;20403;-66
2022/01/21 06:18:07;;;;;;;5.03;1.92;;;;;;;;;;4992209;28;20141;-65
2022/01/21 06:20:34;;;;;;;5.10;1.95;;;;;;;;;;4992656;28;20514;-66
2022/01/21 06:23:02;;;;;;;3.45;1.65;;;;;;;;;;4992576;28;20492;-66
2022/01/21 06:25:29;;;;;;;6.82;1.70;;;;;;;;;;4992751;28;20054;-65
2022/01/21 06:27:56;;;;;;;6.13;2.30;;;;;;;;;;4992131;28;20042;-65
2022/01/21 06:30:23;;;;;;;5.55;2.20;;;;;;;;;;4992856;28;20057;-65
2022/01/21 06:32:50;;;;;;;5.80;2.08;;;;;;;;;;4992516;28;20051;-66
2022/01/21 06:35:17;;;;;;;9.82;2.75;;;;;;;;;;4992567;28;20050;-66
2022/01/21 06:37:44;;;;;;;4.55;1.90;;;;;;;;;;4992154;28;20094;-66
2022/01/21 06:40:15;;;;;;;5.28;2.15;;;;;;;;;;4992654;28;20494;-66
2022/01/21 06:42:42;;;;;;;7.47;2.67;;;;;;;;;;4992650;28;20515;-66
2022/01/21 06:45:10;;;;;;;3.55;1.77;;;;;;;;;;4992765;28;20046;-66
2022/01/21 06:47:37;;;;;;;6.35;2.20;;;;;;;;;;4992028;28;20061;-66
2022/01/21 06:50:05;;;;;;;5.63;2.03;;;;;;;;;;4992415;28;20053;-65
2022/01/21 06:52:33;;;;;;;9.82;2.22;;;;;;;;;;4992715;28;20058;-65
2022/01/21 06:55:00;;;;;;;5.57;2.03;;;;;;;;;;4992042;28;20056;-65
2022/01/21 06:57:29;;;;;;;5.65;2.80;;;;;;;;;;4992120;28;20133;-66
2022/01/21 06:59:57;;;;;;;6.03;2.35;;;;;;;;;;4992257;28;20080;-65
2022/01/21 07:02:24;;;;;;;6.18;2.67;;;;;;;;;;4992541;28;20061;-67
2022/01/21 07:04:51;;;;;;;8.25;2.88;;;;;;;;;;4992067;28;20498;-66
2022/01/21 07:07:18;;;;;;;6.20;3.00;;;;;;;;;;4995191;28;20054;-65
2022/01/21 07:09:46;;;;;;;6.40;2.53;;;;;;;;;;4995849;28;20407;-66
2022/01/21 07:12:13;;;;;;;4.88;2.58;;;;;;;;;;4996095;28;20539;-66
2022/01/21 07:14:41;;;;;;;8.70;2.95;;;;;;;;;;4996027;28;20065;-66
2022/01/21 07:17:08;;;;;;;11.07;3.88;;;;;;;;;;4995884;28;20046;-66
2022/01/21 07:19:35;;;;;;;8.10;2.40;;;;;;;;;;4996084;28;20049;-65
2022/01/21 07:22:02;;;;;;;8.10;2.50;;;;;;;;;;4995779;28;20054;-66
2022/01/21 07:24:30;;;;;;;7.05;3.28;;;;;;;;;;4995871;28;20046;-65
2022/01/21 07:26:57;;;;;;;5.80;2.30;;;;;;;;;;4995715;28;20113;-65
2022/01/21 07:29:24;;;;;;;5.63;2.28;;;;;;;;;;4995987;28;20460;-65
2022/01/21 07:31:54;;;;;;;8.75;2.70;;;;;;;;;;4995930;28;20056;-65
2022/01/21 07:34:22;;;;;;;6.03;3.00;;;;;;;;;;4995812;28;20062;-66
2022/01/21 07:36:49;;;;;;;10.00;3.05;;;;;;;;;;4995467;28;20050;-66
2022/01/21 07:39:16;;;;;;;8.77;2.72;;;;;;;;;;4995524;28;20053;-65
2022/01/21 07:41:43;;;;;;;7.75;2.85;;;;;;;;;;4995948;28;20396;-65
2022/01/21 07:44:12;;;;;;;10.10;3.97;;;;;;;;;;4995686;28;20057;-65
2022/01/21 07:46:40;;;;;;;13.35;4.00;;;;;;;;;;4995252;28;20050;-65
2022/01/21 07:49:08;;;;;;;9.63;3.50;;;;;;;;;;4995069;28;20054;-65
2022/01/21 07:51:36;;;;;;;6.90;3.55;;;;;;;;;;4995333;28;20413;-65
2022/01/21 07:54:03;;;;;;;9.10;3.22;;;;;;;;;;4995436;28;20060;-65
2022/01/21 07:56:32;;;;;;;10.77;3.88;;;;;;;;;;4994929;28;20046;-65
2022/01/21 07:58:59;;;;;;;13.02;3.72;;;;;;;;;;4995677;28;20050;-65
2022/01/21 08:01:26;;;;;;;9.13;4.00;;;;;;;;;;4995237;28;20046;-66
2022/01/21 08:03:53;;;;;;;6.95;3.67;;;;;;;;;;4995528;28;20077;-65
2022/01/21 08:06:22;;;;;;;8.00;3.85;;;;;;;;;;4995387;28;20057;-64
2022/01/21 08:08:49;;;;;;;10.73;4.43;;;;;;;;;;4995415;28;20077;-66
2022/01/21 08:11:16;;;;;;;9.30;4.07;;;;;;;;;;4968313;28;20407;-67
2022/01/21 08:13:44;;;;;;;9.60;4.15;;;;;;;;;;4954526;29;20055;-67
2022/01/21 08:16:11;;;;;;;8.35;3.72;;;;;;;;;;4954631;28;20051;-66
2022/01/21 08:18:38;;;;;;;9.05;3.97;;;;;;;;;;4954229;29;20059;-66
2022/01/21 08:21:05;;;;;;;9.38;3.83;;;;;;;;;;4955058;29;20062;-65
2022/01/21 08:23:34;;;;;;;8.60;4.05;;;;;;;;;;4954736;29;20133;-72
2022/01/21 08:26:02;;;;;;;11.77;4.53;;;;;;;;;;4960227;28;20055;-68
2022/01/21 08:28:29;;;;;;;12.20;4.25;;;;;;;;;;4963456;28;20472;-65
2022/01/21 08:30:59;;;;;;;14.50;4.55;;;;;;;;;;4963897;28;20452;-66
2022/01/21 08:33:26;;;;;;;9.00;4.68;;;;;;;;;;4963227;28;20608;-69
2022/01/21 08:35:53;;;;;;;9.32;4.47;;;;;;;;;;4954859;28;20434;-66
2022/01/21 08:38:21;;;;;;;12.95;4.28;;;;;;;;;;4953535;28;20529;-65
2022/01/21 08:40:50;;;;;;;10.38;4.63;;;;;;;;;;4954171;28;20569;-65
2022/01/21 08:43:18;;;;;;;11.90;4.32;;;;;;;;;;4953401;28;20051;-65
2022/01/21 08:45:45;;;;;;;8.52;4.15;;;;;;;;;;4953273;28;20110;-66
2022/01/21 08:48:12;;;;;;;9.75;4.32;;;;;;;;;;4953150;28;20047;-65
2022/01/21 08:50:39;;;;;;;11.43;4.20;;;;;;;;;;4953647;28;20047;-66
2022/01/21 08:53:35;;;;;;;11.75;5.55;;;;;;;;;;4953389;28;20055;-66
2022/01/21 08:55:58;;;;;;;10.57;4.50;;;;;;;;;;4953472;29;20055;-67
2022/01/21 08:58:26;;;;;;;9.68;4.47;;;;;;;;;;4953889;28;20496;-65
2022/01/21 09:00:54;;;;;;;11.23;4.78;;;;;;;;;;4953788;28;20504;-65
2022/01/21 09:03:21;;;;;;;10.93;5.28;;;;;;;;;;4953691;28;20139;-65
2022/01/21 09:05:50;;;;;;;12.32;5.10;;;;;;;;;;4953464;28;20130;-65
2022/01/21 09:08:18;;;;;;;11.95;5.40;;;;;;;;;;4953910;28;20413;-65
2022/01/21 09:10:45;;;;;;;11.20;4.85;;;;;;;;;;4953351;28;20143;-65
2022/01/21 09:13:13;;;;;;;12.05;4.70;;;;;;;;;;4953238;28;20139;-65
2022/01/21 09:15:41;;;;;;;14.98;5.18;;;;;;;;;;4953504;28;20349;-65
2022/01/21 09:18:09;;;;;;;9.63;4.55;;;;;;;;;;4952835;28;20062;-65
2022/01/21 09:20:38;;;;;;;13.82;4.68;;;;;;;;;;4953174;28;20070;-66
2022/01/21 09:23:06;;;;;;;8.88;4.40;;;;;;;;;;4952663;28;20190;-65
2022/01/21 09:25:33;;;;;;;12.65;4.57;;;;;;;;;;4952616;28;20053;-65
2022/01/21 09:28:01;;;;;;;11.70;4.25;;;;;;;;;;4952517;28;20069;-65
2022/01/21 09:30:29;;;;;;;11.32;4.93;;;;;;;;;;4953178;28;20550;-66
2022/01/21 09:32:57;;;;;;;10.05;4.57;;;;;;;;;;4960883;28;20527;-66
2022/01/21 09:35:24;;;;;;;9.32;4.35;;;;;;;;;;4962844;28;20047;-65
2022/01/21 09:37:51;;;;;;;9.95;4.65;;;;;;;;;;4961109;28;20054;-66
2022/01/21 09:40:19;;;;;;;8.50;4.05;;;;;;;;;;4964065;28;20147;-64
2022/01/21 09:42:46;;;;;;;9.48;4.13;;;;;;;;;;4972067;28;20416;-64
2022/01/21 09:45:15;;;;;;;11.23;4.95;;;;;;;;;;4972460;28;20070;-64
2022/01/21 09:47:49;;;;;;;11.10;4.30;;;;;;;;;;4968565;28;20552;-64
2022/01/21 09:50:18;;;;;;;12.57;4.35;;;;;;;;;;4952496;28;20126;-65
2022/01/21 09:52:47;;;;;;;7.90;3.58;;;;;;;;;;4952799;28;20137;-65
2022/01/21 09:55:17;;;;;;;8.65;3.38;;;;;;;;;;4953028;28;20099;-65
2022/01/21 09:57:47;;;;;;;8.23;3.38;;;;;;;;;;4951980;28;20107;-65
2022/01/21 10:00:16;;;;;;;8.50;3.42;;;;;;;;;;4953025;28;20138;-65
2022/01/21 10:02:45;;;;;;;10.35;2.88;;;;;;;;;;4952436;28;20058;-64
2022/01/21 10:05:13;;;;;;;10.35;3.90;;;;;;;;;;4952603;28;20074;-65
2022/01/21 10:07:42;;;;;;;9.40;3.90;;;;;;;;;;4952354;28;20051;-68
2022/01/21 10:10:09;;;;;;;7.93;3.25;;;;;;;;;;4952271;28;20086;-68
2022/01/21 10:12:38;;;;;;;10.32;3.75;;;;;;;;;;4952136;28;20505;-68
2022/01/21 10:15:07;;;;;;;11.40;3.90;;;;;;;;;;4952058;28;20535;-68
2022/01/21 10:17:35;;;;;;;6.35;2.65;;;;;;;;;;4952003;28;20047;-68
2022/01/21 10:20:14;;;;;;;11.15;3.17;;;;;;;;;;4952525;28;20054;-68
2022/01/21 10:22:57;;;;;;;8.10;2.60;;;;;;;;;;4952389;28;20051;-68
2022/01/21 10:25:25;;;;;;;6.53;2.83;;;;;;;;;;4952159;28;20051;-68
2022/01/21 10:27:52;;;;;;;7.25;2.70;;;;;;;;;;4952064;28;20051;-67
2022/01/21 10:30:21;;;;;;;7.15;2.78;;;;;;;;;;4952110;28;20125;-68
2022/01/21 10:32:48;;;;;;;9.57;2.97;;;;;;;;;;4951942;28;20082;-68
2022/01/21 10:35:26;;;;;;;7.75;2.80;;;;;;;;;;4951645;28;20055;-68
2022/01/21 10:37:56;;;;;;;9.60;3.05;;;;;;;;;;4952344;28;20058;-68
2022/01/21 10:40:23;;;;;;;7.72;2.70;;;;;;;;;;4953889;28;20078;-68
2022/01/21 10:42:50;;;;;;;7.90;2.95;;;;;;;;;;4955964;28;20059;-68
2022/01/21 10:45:18;;;;;;;8.75;3.50;;;;;;;;;;4956099;28;20134;-68
2022/01/21 10:47:49;;;;;;;7.85;3.20;;;;;;;;;;4955729;28;20051;-68
2022/01/21 10:50:19;;;;;;;10.52;4.20;;;;;;;;;;4955871;28;20417;-68
2022/01/21 10:52:51;;;;;;;7.38;3.28;;;;;;;;;;4962508;28;20504;-68
2022/01/21 10:55:29;;;;;;;8.50;3.70;;;;;;;;;;4962810;28;20082;-68
2022/01/21 10:58:07;;;;;;;9.35;4.10;;;;;;;;;;4963506;28;20055;-68
2022/01/21 11:00:36;;;;;;;8.35;3.70;;;;;;;;;;4968194;28;20065;-68
2022/01/21 11:03:11;;;;;;;9.05;3.10;;;;;;;;;;4970984;28;20047;-69
2022/01/21 11:05:42;;;;;;;8.88;3.20;;;;;;;;;;4971424;28;20149;-68
2022/01/21 11:08:12;;;;;;;11.10;4.45;;;;;;;;;;4954306;28;20073;-68
2022/01/21 11:10:42;;;;;;;7.80;3.65;;;;;;;;;;4954653;28;20058;-68
2022/01/21 11:13:32;;;;;;;7.63;3.23;;;;;;;;;;4955345;28;20097;-68
2022/01/21 11:16:05;;;;;;;9.30;3.88;;;;;;;;;;4955392;28;20712;-68
2022/01/21 11:18:33;;;;;;;7.90;3.20;;;;;;;;;;4954934;28;20130;-68
2022/01/21 11:21:07;;;;;;;11.80;4.43;;;;;;;;;;4955281;28;20453;-68
2022/01/21 11:23:37;;;;;;;11.55;3.92;;;;;;;;;;4959496;28;20149;-68
2022/01/21 11:26:09;;;;;;;9.53;3.43;;;;;;;;;;4954382;28;20168;-67
2022/01/21 11:28:40;;;;;;;7.25;2.75;;;;;;;;;;4954971;29;20716;-69
2022/01/21 11:31:09;;;;;;;10.43;3.45;;;;;;;;;;4954955;29;20098;-68
2022/01/21 11:33:37;;;;;;;9.85;2.92;;;;;;;;;;4955307;29;20134;-68
2022/01/21 11:36:06;;;;;;;9.45;3.35;;;;;;;;;;4954972;29;20412;-69
2022/01/21 11:38:38;;;;;;;8.40;3.50;;;;;;;;;;4954732;28;20377;-67
2022/01/21 11:41:06;;;;;;;7.63;3.20;;;;;;;;;;4955123;29;20478;-69
2022/01/21 11:43:35;;;;;;;6.88;2.97;;;;;;;;;;4954772;29;20059;-66
2022/01/21 11:46:26;;;;;;;9.40;3.55;;;;;;;;;;4955106;29;20525;-67
2022/01/21 11:48:55;;;;;;;9.48;3.17;;;;;;;;;;4955453;29;20062;-66
2022/01/21 11:51:26;;;;;;;9.15;3.40;;;;;;;;;;4954140;28;20545;-67
2022/01/21 11:53:56;;;;;;;;;;;;;;;;;;4955944;29;20166;-65
2022/01/21 11:56:31;;;;;;;8.70;3.85;;;;;;;;;;4955079;29;19923;-68
2022/01/21 11:59:07;;;;;;;8.60;2.80;;;;;;;;;;4954870;29;20057;-68
2022/01/21 12:01:36;;;;;;;6.25;2.42;;;;;;;;;;4954469;29;20048;-68
2022/01/21 12:04:04;;;;;;;5.32;2.95;;;;;;;;;;4954164;28;20085;-68
2022/01/21 12:06:33;;;;;;;10.95;3.13;;;;;;;;;;4954420;29;20086;-68
2022/01/21 12:09:03;;;;;;;6.35;2.60;;;;;;;;;;4954814;29;20043;-69
2022/01/21 12:11:37;;;;;;;7.18;2.50;;;;;;;;;;4954557;29;20114;-67
2022/01/21 12:14:28;;;;;;;5.53;2.13;;;;;;;;;;4954522;29;20557;-68
2022/01/21 12:17:00;;;;;;;6.20;2.50;;;;;;;;;;4953847;29;20465;-68
2022/01/21 12:19:33;;;;;;;10.05;3.60;;;;;;;;;;4953971;29;20150;-68
2022/01/21 12:22:12;;;;;;;6.85;2.05;;;;;;;;;;4954109;29;20069;-66
2022/01/21 12:24:54;;;;;;;6.95;2.55;;;;;;;;;;4954093;29;20059;-67
2022/01/21 12:27:23;;;;;;;5.07;2.30;;;;;;;;;;4953355;29;20055;-68
2022/01/21 12:29:51;;;;;;;7.05;2.78;;;;;;;;;;4954278;29;20320;-68
2022/01/21 12:35:17;;;;;;;9.45;2.33;;;;;;;;;;4953375;29;20055;-68
2022/01/21 12:39:05;;;;;;;8.85;2.25;;;;;;;;;;4953747;29;20524;-68
2022/01/21 12:41:16;;;;;;;5.60;2.22;;;;;;;;;;4953898;29;20517;-67
2022/01/21 12:43:46;;;;;;;5.78;2.15;;;;;;;;;;4937775;29;20146;-67
2022/01/21 12:46:16;;;;;;;8.90;2.75;;;;;;;;;;4953706;29;20055;-68
2022/01/21 12:48:44;;;;;;;4.97;2.22;;;;;;;;;;4953289;29;20057;-68
2022/01/21 12:51:17;;;;;;;8.23;3.05;;;;;;;;;;4953744;29;20082;-67
2022/01/21 12:56:44;;;;;;;7.28;2.75;;;;;;;;;;4953308;29;20058;-67
2022/01/21 12:59:15;;;;;;;;;;;;;;;;;;4953744;28;20497;-67
2022/01/21 13:01:42;;;;;;;;;;;;;;;;;;4953656;29;19922;-67
2022/01/21 13:04:19;;;;;;;8.57;3.03;;;;;;;;;;4952059;28;19966;-67
2022/01/21 13:06:55;;;;;;;8.13;3.13;;;;;;;;;;4953210;28;20069;-67
2022/01/21 13:09:40;;;;;;;7.22;2.85;;;;;;;;;;4953275;29;20047;-67
2022/01/21 13:12:12;;;;;;;10.05;3.55;;;;;;;;;;4953425;29;20058;-69
2022/01/21 13:14:45;;;;;;;8.18;2.50;;;;;;;;;;4953441;29;20110;-68
2022/01/21 13:17:16;;;;;;;8.18;2.97;;;;;;;;;;4953059;29;20078;-68
2022/01/21 13:19:45;;;;;;;10.63;3.58;;;;;;;;;;4953039;29;20055;-67
2022/01/21 13:22:16;;;;;;;11.38;3.60;;;;;;;;;;4953001;29;20051;-67
2022/01/21 13:25:02;;;;;;;11.45;4.28;;;;;;;;;;5103543;27;20382;-68
2022/01/21 13:27:30;;;;;;;8.70;3.00;;;;;;;;;;5087593;28;20355;-68
2022/01/21 13:30:01;;;;;;;6.80;3.00;;;;;;;;;;5087619;28;20052;-68
2022/01/21 13:32:29;;;;;;;6.55;3.22;;;;;;;;;;5087558;28;20062;-67
2022/01/21 13:35:07;;;;;;;8.35;2.45;;;;;;;;;;5087697;28;20136;-67
2022/01/21 13:37:34;;;;;;;8.80;3.10;;;;;;;;;;5087406;28;20055;-68
2022/01/21 13:40:05;;;;;;;9.10;3.13;;;;;;;;;;5087338;28;20047;-68
2022/01/21 13:42:33;;;;;;;8.10;2.78;;;;;;;;;;5086466;28;20052;-68
2022/01/21 13:45:04;;;;;;;7.40;3.08;;;;;;;;;;5087433;28;20094;-69
2022/01/21 13:47:36;;;;;;;7.85;2.95;;;;;;;;;;5086908;28;20148;-69
2022/01/21 13:50:08;;;;;;;7.78;3.05;;;;;;;;;;5087341;28;20063;-68
2022/01/21 13:52:44;;;;;;;10.82;3.70;;;;;;;;;;5087249;28;20412;-68
2022/01/21 13:55:26;;;;;;;7.80;3.08;;;;;;;;;;5087304;28;20048;-66
2022/01/21 13:57:55;;;;;;;10.90;4.38;;;;;;;;;;5086897;28;20124;-67
2022/01/21 14:00:31;;;;;;;6.88;3.28;;;;;;;;;;5086911;28;20412;-68
2022/01/21 14:03:06;;;;;;;9.63;3.80;;;;;;;;;;5080821;28;20060;-68
2022/01/21 14:05:51;;;;;;;6.85;2.80;;;;;;;;;;5086856;28;20056;-68
2022/01/21 14:08:20;;;;;;;7.78;3.88;;;;;;;;;;5087426;28;20455;-68
2022/01/21 14:10:56;;;;;;;7.28;3.30;;;;;;;;;;5086637;28;20044;-68
2022/01/21 14:13:27;;;;;;;10.88;4.20;;;;;;;;;;5087115;28;20056;-67
2022/01/21 14:15:56;;;;;;;7.47;3.40;;;;;;;;;;5087001;28;20055;-67
2022/01/21 14:18:24;;;;;;;7.13;3.20;;;;;;;;;;5086294;28;20063;-67
2022/01/21 14:20:51;;;;;;;7.93;3.03;;;;;;;;;;5086508;28;20045;-68
2022/01/21 14:23:25;;;;;;;6.72;3.05;;;;;;;;;;5086171;28;20055;-68
2022/01/21 14:25:55;;;;;;;8.00;3.22;;;;;;;;;;5086746;28;20048;-68
2022/01/21 14:28:40;;;;;;;14.02;3.65;;;;;;;;;;5086104;28;20044;-68
2022/01/21 14:31:07;;;;;;;9.10;2.80;;;;;;;;;;5086671;28;20054;-68
2022/01/21 14:33:41;;;;;;;9.38;3.10;;;;;;;;;;5086840;28;20056;-67
2022/01/21 14:36:15;;;;;;;6.93;2.70;;;;;;;;;;5073176;28;20087;-68
2022/01/21 14:38:47;;;;;;;7.72;3.00;;;;;;;;;;5072693;28;20049;-68
2022/01/21 14:41:19;;;;;;;8.07;2.90;;;;;;;;;;5072906;28;20521;-68
2022/01/21 14:43:53;;;;;;;7.75;3.25;;;;;;;;;;5073514;28;20148;-68
2022/01/21 14:46:24;;;;;;;10.07;3.50;;;;;;;;;;5072712;28;20052;-68
2022/01/21 14:48:59;;;;;;;6.80;3.55;;;;;;;;;;5072672;28;20052;-68
2022/01/21 14:51:34;;;;;;;9.13;3.30;;;;;;;;;;5072788;28;20051;-68
2022/01/21 14:54:16;;;;;;;11.10;4.00;;;;;;;;;;5072608;28;20062;-68
2022/01/21 14:56:56;;;;;;;7.60;2.83;;;;;;;;;;5072273;28;20056;-68
2022/01/21 14:59:23;;;;;;;8.23;3.42;;;;;;;;;;5072422;28;20052;-67
2022/01/21 15:02:03;;;;;;;10.13;2.95;;;;;;;;;;5071722;28;20048;-70
2022/01/21 15:04:35;;;;;;;8.82;2.97;;;;;;;;;;5072344;28;20075;-68
2022/01/21 15:07:10;;;;;;;7.93;3.42;;;;;;;;;;5072150;28;20063;-68
2022/01/21 15:09:42;;;;;;;7.35;3.10;;;;;;;;;;5072421;28;20055;-67
2022/01/21 15:14:23;;;;;;;10.63;3.65;;;;;;;;;;5072209;28;20052;-68
2022/01/21 15:14:58;;;;;;;7.63;3.60;;;;;;;;;;5072197;28;20048;-68
2022/01/21 15:17:27;;;;;;;7.88;3.55;;;;;;;;;;5071819;28;20158;-68
2022/01/21 15:19:55;;;;;;;11.27;4.75;;;;;;;;;;5071829;28;20056;-67
2022/01/21 15:22:24;;;;;;;9.65;3.95;;;;;;;;;;5072532;28;20052;-67
2022/01/21 15:24:53;;;;;;;15.35;4.53;;;;;;;;;;5071697;28;20362;-66
2022/01/21 15:27:22;;;;;;;9.95;4.13;;;;;;;;;;5071564;28;20480;-66
2022/01/21 15:29:51;;;;;;;7.93;4.25;;;;;;;;;;5071280;28;20049;-68
2022/01/21 15:32:18;;;;;;;10.45;3.92;;;;;;;;;;5072025;28;20079;-67
2022/01/21 15:34:46;;;;;;;13.13;4.82;;;;;;;;;;5071953;28;20062;-67
2022/01/21 15:37:14;;;;;;;13.07;3.95;;;;;;;;;;5071460;28;20041;-67
2022/01/21 15:39:42;;;;;;;8.40;4.30;;;;;;;;;;5071680;28;20044;-66
2022/01/21 15:42:10;;;;;;;11.25;5.13;;;;;;;;;;5071538;28;20053;-66